Burgas, Bulgaria
Current Conditions -  °F | °C
As of 1:00 PM on Sunday 25 Jan 2015 (Local Time) from LBBG Reporting Station
Few Clouds Few Clouds  
Wind Chill: 52°   Ceiling: Unl
Heat Index: 52°   Visibility: 6mi
Dew Point: 46°   Wind: 8mph
Humidity: 82%   Direction: 90°E
Pressure: 29.85"   Gusts: NA
Location:  42.51°N, 27.47°E
Report Text: LBBG 251000Z 09007KT 9999 FEW010 11/08 Q1011 R99/19//95 NOSIG
Loading
Personal Weather Stations






























Interactive Weather Map New forecast layout! Learn more

10-Day Weather Forecast

Advertisements
Track Severe Weather on mobile